sensor_id;sensor_type;location;lat;lon;timestamp;P1;durP1;ratioP1;P2;durP2;ratioP2
37905;SDS011;23739;51.448;6.674;2023-04-23T00:00:07;50.33;;;32.72;;
37905;SDS011;23739;51.448;6.674;2023-04-23T00:02:37;46.00;;;29.65;;
37905;SDS011;23739;51.448;6.674;2023-04-23T00:05:04;49.03;;;31.77;;
37905;SDS011;23739;51.448;6.674;2023-04-23T00:07:31;47.85;;;31.70;;
37905;SDS011;23739;51.448;6.674;2023-04-23T00:09:58;50.58;;;31.45;;
37905;SDS011;23739;51.448;6.674;2023-04-23T00:12:25;46.38;;;30.80;;
37905;SDS011;23739;51.448;6.674;2023-04-23T00:14:52;54.22;;;33.25;;
37905;SDS011;23739;51.448;6.674;2023-04-23T00:17:18;46.10;;;32.53;;
37905;SDS011;23739;51.448;6.674;2023-04-23T00:19:44;46.42;;;30.92;;
37905;SDS011;23739;51.448;6.674;2023-04-23T00:22:11;45.72;;;30.15;;
37905;SDS011;23739;51.448;6.674;2023-04-23T00:24:41;50.13;;;32.22;;
37905;SDS011;23739;51.448;6.674;2023-04-23T00:27:07;49.28;;;32.15;;
37905;SDS011;23739;51.448;6.674;2023-04-23T00:29:33;52.15;;;31.60;;
37905;SDS011;23739;51.448;6.674;2023-04-23T00:31:59;52.00;;;32.78;;
37905;SDS011;23739;51.448;6.674;2023-04-23T00:34:27;52.03;;;32.47;;
37905;SDS011;23739;51.448;6.674;2023-04-23T00:36:53;49.97;;;32.28;;
37905;SDS011;23739;51.448;6.674;2023-04-23T00:39:19;47.55;;;32.03;;
37905;SDS011;23739;51.448;6.674;2023-04-23T00:41:45;45.78;;;31.20;;
37905;SDS011;23739;51.448;6.674;2023-04-23T00:44:12;52.33;;;32.10;;
37905;SDS011;23739;51.448;6.674;2023-04-23T00:46:38;51.63;;;32.17;;
37905;SDS011;23739;51.448;6.674;2023-04-23T00:49:05;47.47;;;31.48;;
37905;SDS011;23739;51.448;6.674;2023-04-23T00:51:31;52.10;;;33.05;;
37905;SDS011;23739;51.448;6.674;2023-04-23T00:53:57;62.10;;;34.75;;
37905;SDS011;23739;51.448;6.674;2023-04-23T00:56:23;53.92;;;33.55;;
37905;SDS011;23739;51.448;6.674;2023-04-23T00:58:52;54.53;;;32.72;;
37905;SDS011;23739;51.448;6.674;2023-04-23T01:01:21;49.90;;;31.90;;
37905;SDS011;23739;51.448;6.674;2023-04-23T01:03:48;49.22;;;32.28;;
37905;SDS011;23739;51.448;6.674;2023-04-23T01:06:15;51.67;;;32.70;;
37905;SDS011;23739;51.448;6.674;2023-04-23T01:08:44;51.50;;;32.20;;
37905;SDS011;23739;51.448;6.674;2023-04-23T01:11:15;50.45;;;32.65;;
37905;SDS011;23739;51.448;6.674;2023-04-23T01:13:41;49.88;;;31.88;;
37905;SDS011;23739;51.448;6.674;2023-04-23T01:16:08;52.60;;;33.55;;
37905;SDS011;23739;51.448;6.674;2023-04-23T01:18:34;55.60;;;33.50;;
37905;SDS011;23739;51.448;6.674;2023-04-23T01:21:01;52.47;;;32.25;;
37905;SDS011;23739;51.448;6.674;2023-04-23T01:23:27;50.95;;;32.42;;
37905;SDS011;23739;51.448;6.674;2023-04-23T01:25:54;48.78;;;31.80;;
37905;SDS011;23739;51.448;6.674;2023-04-23T01:28:20;49.42;;;31.95;;
37905;SDS011;23739;51.448;6.674;2023-04-23T01:30:46;50.53;;;31.50;;
37905;SDS011;23739;51.448;6.674;2023-04-23T01:33:12;47.17;;;30.88;;
37905;SDS011;23739;51.448;6.674;2023-04-23T01:35:39;51.33;;;31.40;;
37905;SDS011;23739;51.448;6.674;2023-04-23T01:38:06;44.17;;;28.83;;
37905;SDS011;23739;51.448;6.674;2023-04-23T01:40:34;46.95;;;30.05;;
37905;SDS011;23739;51.448;6.674;2023-04-23T01:43:00;44.88;;;30.25;;
37905;SDS011;23739;51.448;6.674;2023-04-23T01:45:26;46.30;;;29.20;;
37905;SDS011;23739;51.448;6.674;2023-04-23T01:47:52;48.72;;;30.33;;
37905;SDS011;23739;51.448;6.674;2023-04-23T01:50:19;44.30;;;28.63;;
37905;SDS011;23739;51.448;6.674;2023-04-23T01:52:48;44.85;;;28.35;;
37905;SDS011;23739;51.448;6.674;2023-04-23T01:55:14;42.22;;;27.52;;
37905;SDS011;23739;51.448;6.674;2023-04-23T01:57:40;48.00;;;30.10;;
37905;SDS011;23739;51.448;6.674;2023-04-23T02:00:07;44.47;;;28.55;;
37905;SDS011;23739;51.448;6.674;2023-04-23T02:02:35;37.05;;;26.30;;
37905;SDS011;23739;51.448;6.674;2023-04-23T02:05:01;39.58;;;27.55;;
37905;SDS011;23739;51.448;6.674;2023-04-23T02:07:30;44.25;;;27.40;;
37905;SDS011;23739;51.448;6.674;2023-04-23T02:09:56;43.25;;;28.35;;
37905;SDS011;23739;51.448;6.674;2023-04-23T02:12:22;43.53;;;28.65;;
37905;SDS011;23739;51.448;6.674;2023-04-23T02:14:48;40.83;;;26.90;;
37905;SDS011;23739;51.448;6.674;2023-04-23T02:17:15;42.72;;;28.00;;
37905;SDS011;23739;51.448;6.674;2023-04-23T02:19:41;38.15;;;26.92;;
37905;SDS011;23739;51.448;6.674;2023-04-23T02:22:07;42.58;;;27.98;;
37905;SDS011;23739;51.448;6.674;2023-04-23T02:24:33;38.10;;;26.00;;
37905;SDS011;23739;51.448;6.674;2023-04-23T02:26:59;40.83;;;26.92;;
37905;SDS011;23739;51.448;6.674;2023-04-23T02:29:26;39.78;;;26.42;;
37905;SDS011;23739;51.448;6.674;2023-04-23T02:31:52;38.97;;;25.80;;
37905;SDS011;23739;51.448;6.674;2023-04-23T02:34:18;40.28;;;25.85;;
37905;SDS011;23739;51.448;6.674;2023-04-23T02:36:44;39.47;;;25.63;;
37905;SDS011;23739;51.448;6.674;2023-04-23T02:39:10;37.25;;;26.35;;
37905;SDS011;23739;51.448;6.674;2023-04-23T02:41:36;39.13;;;27.95;;
37905;SDS011;23739;51.448;6.674;2023-04-23T02:44:02;39.15;;;25.58;;
37905;SDS011;23739;51.448;6.674;2023-04-23T02:46:28;41.63;;;27.42;;
37905;SDS011;23739;51.448;6.674;2023-04-23T02:48:55;38.15;;;25.38;;
37905;SDS011;23739;51.448;6.674;2023-04-23T02:51:21;38.58;;;25.25;;
37905;SDS011;23739;51.448;6.674;2023-04-23T02:53:47;39.38;;;27.10;;
37905;SDS011;23739;51.448;6.674;2023-04-23T02:56:14;37.05;;;26.45;;
37905;SDS011;23739;51.448;6.674;2023-04-23T02:58:40;38.95;;;25.13;;
37905;SDS011;23739;51.448;6.674;2023-04-23T03:01:06;36.60;;;26.05;;
37905;SDS011;23739;51.448;6.674;2023-04-23T03:03:32;38.03;;;24.33;;
37905;SDS011;23739;51.448;6.674;2023-04-23T03:05:59;38.35;;;25.23;;
37905;SDS011;23739;51.448;6.674;2023-04-23T03:08:26;36.05;;;26.02;;
37905;SDS011;23739;51.448;6.674;2023-04-23T03:10:52;41.15;;;27.23;;
37905;SDS011;23739;51.448;6.674;2023-04-23T03:13:18;38.28;;;24.60;;
37905;SDS011;23739;51.448;6.674;2023-04-23T03:15:44;36.05;;;25.45;;
37905;SDS011;23739;51.448;6.674;2023-04-23T03:18:10;43.05;;;26.10;;
37905;SDS011;23739;51.448;6.674;2023-04-23T03:20:36;39.13;;;26.52;;
37905;SDS011;23739;51.448;6.674;2023-04-23T03:23:02;40.45;;;26.38;;
37905;SDS011;23739;51.448;6.674;2023-04-23T03:25:32;37.10;;;26.23;;
37905;SDS011;23739;51.448;6.674;2023-04-23T03:27:58;37.10;;;24.92;;
37905;SDS011;23739;51.448;6.674;2023-04-23T03:30:24;37.90;;;25.88;;
37905;SDS011;23739;51.448;6.674;2023-04-23T03:32:51;36.92;;;25.67;;
37905;SDS011;23739;51.448;6.674;2023-04-23T03:35:17;38.10;;;26.30;;
37905;SDS011;23739;51.448;6.674;2023-04-23T03:37:43;38.70;;;25.20;;
37905;SDS011;23739;51.448;6.674;2023-04-23T03:40:09;37.42;;;24.55;;
37905;SDS011;23739;51.448;6.674;2023-04-23T03:42:36;38.45;;;27.55;;
37905;SDS011;23739;51.448;6.674;2023-04-23T03:45:02;40.35;;;26.27;;
37905;SDS011;23739;51.448;6.674;2023-04-23T03:47:28;39.45;;;26.15;;
37905;SDS011;23739;51.448;6.674;2023-04-23T03:49:55;39.50;;;26.05;;
37905;SDS011;23739;51.448;6.674;2023-04-23T03:52:21;40.85;;;27.00;;
37905;SDS011;23739;51.448;6.674;2023-04-23T03:54:47;39.40;;;26.58;;
37905;SDS011;23739;51.448;6.674;2023-04-23T03:57:13;39.42;;;27.75;;
37905;SDS011;23739;51.448;6.674;2023-04-23T03:59:40;35.97;;;25.40;;
37905;SDS011;23739;51.448;6.674;2023-04-23T04:02:06;40.58;;;28.38;;
37905;SDS011;23739;51.448;6.674;2023-04-23T04:04:32;36.80;;;25.80;;
37905;SDS011;23739;51.448;6.674;2023-04-23T04:06:58;42.25;;;27.23;;
37905;SDS011;23739;51.448;6.674;2023-04-23T04:09:25;38.08;;;27.50;;
37905;SDS011;23739;51.448;6.674;2023-04-23T04:11:51;38.33;;;26.42;;
37905;SDS011;23739;51.448;6.674;2023-04-23T04:14:21;40.50;;;27.48;;
37905;SDS011;23739;51.448;6.674;2023-04-23T04:16:47;42.28;;;27.33;;
37905;SDS011;23739;51.448;6.674;2023-04-23T04:19:13;38.78;;;26.55;;
37905;SDS011;23739;51.448;6.674;2023-04-23T04:21:40;42.78;;;26.75;;
37905;SDS011;23739;51.448;6.674;2023-04-23T04:24:06;39.58;;;27.85;;
37905;SDS011;23739;51.448;6.674;2023-04-23T04:26:32;40.42;;;26.95;;
37905;SDS011;23739;51.448;6.674;2023-04-23T04:28:59;41.08;;;27.85;;
37905;SDS011;23739;51.448;6.674;2023-04-23T04:31:28;41.38;;;26.73;;
37905;SDS011;23739;51.448;6.674;2023-04-23T04:33:58;37.20;;;25.40;;
37905;SDS011;23739;51.448;6.674;2023-04-23T04:36:24;38.55;;;26.92;;
37905;SDS011;23739;51.448;6.674;2023-04-23T04:38:51;38.92;;;27.40;;
37905;SDS011;23739;51.448;6.674;2023-04-23T04:41:20;42.65;;;28.58;;
37905;SDS011;23739;51.448;6.674;2023-04-23T04:43:46;37.75;;;26.42;;
37905;SDS011;23739;51.448;6.674;2023-04-23T04:46:13;36.10;;;25.92;;
37905;SDS011;23739;51.448;6.674;2023-04-23T04:48:39;37.53;;;25.35;;
37905;SDS011;23739;51.448;6.674;2023-04-23T04:51:06;42.42;;;27.55;;
37905;SDS011;23739;51.448;6.674;2023-04-23T04:53:32;38.45;;;27.02;;
37905;SDS011;23739;51.448;6.674;2023-04-23T04:55:59;36.70;;;25.52;;
37905;SDS011;23739;51.448;6.674;2023-04-23T04:58:25;36.10;;;25.20;;
37905;SDS011;23739;51.448;6.674;2023-04-23T05:00:51;37.00;;;27.77;;
37905;SDS011;23739;51.448;6.674;2023-04-23T05:03:18;36.90;;;27.58;;
37905;SDS011;23739;51.448;6.674;2023-04-23T05:05:45;36.83;;;28.33;;
37905;SDS011;23739;51.448;6.674;2023-04-23T05:08:12;36.60;;;25.88;;
37905;SDS011;23739;51.448;6.674;2023-04-23T05:10:42;37.83;;;26.00;;
37905;SDS011;23739;51.448;6.674;2023-04-23T05:13:09;35.05;;;25.48;;
37905;SDS011;23739;51.448;6.674;2023-04-23T05:15:35;35.65;;;25.20;;
37905;SDS011;23739;51.448;6.674;2023-04-23T05:18:04;34.67;;;25.48;;
37905;SDS011;23739;51.448;6.674;2023-04-23T05:20:30;34.53;;;23.90;;
37905;SDS011;23739;51.448;6.674;2023-04-23T05:22:56;34.20;;;24.23;;
37905;SDS011;23739;51.448;6.674;2023-04-23T05:25:28;32.65;;;24.80;;
37905;SDS011;23739;51.448;6.674;2023-04-23T05:27:54;32.72;;;23.27;;
37905;SDS011;23739;51.448;6.674;2023-04-23T05:30:20;30.73;;;23.60;;
37905;SDS011;23739;51.448;6.674;2023-04-23T05:32:46;32.10;;;23.42;;
37905;SDS011;23739;51.448;6.674;2023-04-23T05:35:12;30.73;;;22.88;;
37905;SDS011;23739;51.448;6.674;2023-04-23T05:37:38;26.90;;;20.90;;
37905;SDS011;23739;51.448;6.674;2023-04-23T05:40:04;29.67;;;21.50;;
37905;SDS011;23739;51.448;6.674;2023-04-23T05:42:31;28.63;;;21.15;;
37905;SDS011;23739;51.448;6.674;2023-04-23T05:44:59;25.98;;;20.67;;
37905;SDS011;23739;51.448;6.674;2023-04-23T05:47:25;26.35;;;19.90;;
37905;SDS011;23739;51.448;6.674;2023-04-23T05:49:51;27.73;;;20.42;;
37905;SDS011;23739;51.448;6.674;2023-04-23T05:52:17;25.73;;;20.20;;
37905;SDS011;23739;51.448;6.674;2023-04-23T05:54:43;27.30;;;20.40;;
37905;SDS011;23739;51.448;6.674;2023-04-23T05:57:10;24.90;;;20.20;;
37905;SDS011;23739;51.448;6.674;2023-04-23T05:59:36;26.80;;;20.23;;
37905;SDS011;23739;51.448;6.674;2023-04-23T06:02:02;28.90;;;19.95;;
37905;SDS011;23739;51.448;6.674;2023-04-23T06:04:29;27.85;;;20.10;;
37905;SDS011;23739;51.448;6.674;2023-04-23T06:06:55;26.52;;;19.80;;
37905;SDS011;23739;51.448;6.674;2023-04-23T06:09:21;25.02;;;19.33;;
37905;SDS011;23739;51.448;6.674;2023-04-23T06:11:47;25.67;;;20.35;;
37905;SDS011;23739;51.448;6.674;2023-04-23T06:14:15;25.75;;;18.88;;
37905;SDS011;23739;51.448;6.674;2023-04-23T06:16:41;25.35;;;18.70;;
37905;SDS011;23739;51.448;6.674;2023-04-23T06:19:07;22.65;;;17.80;;
37905;SDS011;23739;51.448;6.674;2023-04-23T06:21:33;25.58;;;19.80;;
37905;SDS011;23739;51.448;6.674;2023-04-23T06:23:59;25.98;;;18.45;;
37905;SDS011;23739;51.448;6.674;2023-04-23T06:26:25;25.23;;;18.65;;
37905;SDS011;23739;51.448;6.674;2023-04-23T06:28:51;24.50;;;18.25;;
37905;SDS011;23739;51.448;6.674;2023-04-23T06:31:17;23.77;;;18.52;;
37905;SDS011;23739;51.448;6.674;2023-04-23T06:33:44;24.75;;;19.33;;
37905;SDS011;23739;51.448;6.674;2023-04-23T06:36:10;24.58;;;19.13;;
37905;SDS011;23739;51.448;6.674;2023-04-23T06:38:36;24.08;;;18.55;;
37905;SDS011;23739;51.448;6.674;2023-04-23T06:41:03;24.10;;;19.35;;
37905;SDS011;23739;51.448;6.674;2023-04-23T06:43:29;22.98;;;18.65;;
37905;SDS011;23739;51.448;6.674;2023-04-23T06:45:55;23.05;;;18.90;;
37905;SDS011;23739;51.448;6.674;2023-04-23T06:48:21;25.52;;;19.35;;
37905;SDS011;23739;51.448;6.674;2023-04-23T06:50:47;26.77;;;20.15;;
37905;SDS011;23739;51.448;6.674;2023-04-23T06:53:14;29.77;;;20.38;;
37905;SDS011;23739;51.448;6.674;2023-04-23T06:55:40;24.73;;;20.02;;
37905;SDS011;23739;51.448;6.674;2023-04-23T06:58:06;24.58;;;18.70;;
37905;SDS011;23739;51.448;6.674;2023-04-23T07:00:32;22.88;;;17.42;;
37905;SDS011;23739;51.448;6.674;2023-04-23T07:02:58;24.05;;;18.83;;
37905;SDS011;23739;51.448;6.674;2023-04-23T07:05:24;24.88;;;17.38;;
37905;SDS011;23739;51.448;6.674;2023-04-23T07:07:50;20.85;;;17.27;;
37905;SDS011;23739;51.448;6.674;2023-04-23T07:10:17;20.75;;;17.02;;
37905;SDS011;23739;51.448;6.674;2023-04-23T07:12:43;21.15;;;16.40;;
37905;SDS011;23739;51.448;6.674;2023-04-23T07:15:09;19.38;;;17.13;;
37905;SDS011;23739;51.448;6.674;2023-04-23T07:17:36;18.25;;;15.52;;
37905;SDS011;23739;51.448;6.674;2023-04-23T07:20:02;18.25;;;15.65;;
37905;SDS011;23739;51.448;6.674;2023-04-23T07:22:30;17.08;;;14.45;;
37905;SDS011;23739;51.448;6.674;2023-04-23T07:24:56;18.15;;;14.73;;
37905;SDS011;23739;51.448;6.674;2023-04-23T07:27:23;18.08;;;13.98;;
37905;SDS011;23739;51.448;6.674;2023-04-23T07:29:49;15.40;;;12.75;;
37905;SDS011;23739;51.448;6.674;2023-04-23T07:32:15;14.20;;;11.65;;
37905;SDS011;23739;51.448;6.674;2023-04-23T07:34:41;14.02;;;11.88;;
37905;SDS011;23739;51.448;6.674;2023-04-23T07:37:07;13.73;;;11.93;;
37905;SDS011;23739;51.448;6.674;2023-04-23T07:39:33;13.75;;;11.57;;
37905;SDS011;23739;51.448;6.674;2023-04-23T07:41:59;13.50;;;11.40;;
37905;SDS011;23739;51.448;6.674;2023-04-23T07:44:26;11.65;;;9.20;;
37905;SDS011;23739;51.448;6.674;2023-04-23T07:46:52;10.32;;;9.25;;
37905;SDS011;23739;51.448;6.674;2023-04-23T07:49:18;10.55;;;9.38;;
37905;SDS011;23739;51.448;6.674;2023-04-23T07:51:45;10.32;;;8.82;;
37905;SDS011;23739;51.448;6.674;2023-04-23T07:54:11;12.45;;;8.15;;
37905;SDS011;23739;51.448;6.674;2023-04-23T07:56:37;9.23;;;7.43;;
37905;SDS011;23739;51.448;6.674;2023-04-23T07:59:03;11.02;;;6.78;;
37905;SDS011;23739;51.448;6.674;2023-04-23T08:01:31;8.70;;;6.65;;
37905;SDS011;23739;51.448;6.674;2023-04-23T08:03:58;9.95;;;7.78;;
37905;SDS011;23739;51.448;6.674;2023-04-23T08:06:25;6.53;;;5.75;;
37905;SDS011;23739;51.448;6.674;2023-04-23T08:08:51;7.55;;;6.60;;
37905;SDS011;23739;51.448;6.674;2023-04-23T08:11:20;10.38;;;6.32;;
37905;SDS011;23739;51.448;6.674;2023-04-23T08:13:46;6.30;;;5.35;;
37905;SDS011;23739;51.448;6.674;2023-04-23T08:16:12;8.77;;;5.53;;
37905;SDS011;23739;51.448;6.674;2023-04-23T08:18:38;9.82;;;5.80;;
37905;SDS011;23739;51.448;6.674;2023-04-23T08:21:04;7.75;;;5.57;;
37905;SDS011;23739;51.448;6.674;2023-04-23T08:23:30;8.30;;;5.50;;
37905;SDS011;23739;51.448;6.674;2023-04-23T08:25:57;7.20;;;4.85;;
37905;SDS011;23739;51.448;6.674;2023-04-23T08:28:23;5.55;;;4.90;;
37905;SDS011;23739;51.448;6.674;2023-04-23T08:30:49;7.15;;;4.38;;
37905;SDS011;23739;51.448;6.674;2023-04-23T08:33:15;8.35;;;5.53;;
37905;SDS011;23739;51.448;6.674;2023-04-23T08:35:41;9.25;;;4.55;;
37905;SDS011;23739;51.448;6.674;2023-04-23T08:38:07;6.05;;;4.50;;
37905;SDS011;23739;51.448;6.674;2023-04-23T08:40:33;7.10;;;4.93;;
37905;SDS011;23739;51.448;6.674;2023-04-23T08:43:01;5.85;;;3.97;;
37905;SDS011;23739;51.448;6.674;2023-04-23T08:45:28;6.70;;;4.75;;
37905;SDS011;23739;51.448;6.674;2023-04-23T08:47:57;7.20;;;4.43;;
37905;SDS011;23739;51.448;6.674;2023-04-23T08:50:24;9.00;;;4.57;;
37905;SDS011;23739;51.448;6.674;2023-04-23T08:52:54;7.15;;;4.18;;
37905;SDS011;23739;51.448;6.674;2023-04-23T08:55:21;3.80;;;3.33;;
37905;SDS011;23739;51.448;6.674;2023-04-23T08:57:47;7.30;;;4.15;;
37905;SDS011;23739;51.448;6.674;2023-04-23T09:00:14;5.65;;;3.70;;
37905;SDS011;23739;51.448;6.674;2023-04-23T09:02:42;7.60;;;3.80;;
37905;SDS011;23739;51.448;6.674;2023-04-23T09:05:08;5.93;;;3.22;;
37905;SDS011;23739;51.448;6.674;2023-04-23T09:07:35;8.77;;;4.47;;
37905;SDS011;23739;51.448;6.674;2023-04-23T09:10:02;5.05;;;3.15;;
37905;SDS011;23739;51.448;6.674;2023-04-23T09:12:28;5.78;;;2.70;;
37905;SDS011;23739;51.448;6.674;2023-04-23T09:14:55;6.07;;;3.63;;
37905;SDS011;23739;51.448;6.674;2023-04-23T09:17:22;5.22;;;2.80;;
37905;SDS011;23739;51.448;6.674;2023-04-23T09:19:51;8.68;;;3.03;;
37905;SDS011;23739;51.448;6.674;2023-04-23T09:25:07;4.53;;;2.45;;
37905;SDS011;23739;51.448;6.674;2023-04-23T09:27:33;9.02;;;2.40;;
37905;SDS011;23739;51.448;6.674;2023-04-23T09:30:02;4.97;;;2.55;;
37905;SDS011;23739;51.448;6.674;2023-04-23T09:32:31;8.57;;;2.58;;
37905;SDS011;23739;51.448;6.674;2023-04-23T09:34:58;5.00;;;2.45;;
37905;SDS011;23739;51.448;6.674;2023-04-23T09:37:24;4.68;;;2.42;;
37905;SDS011;23739;51.448;6.674;2023-04-23T09:39:51;4.65;;;3.03;;
37905;SDS011;23739;51.448;6.674;2023-04-23T09:42:20;4.20;;;2.38;;
37905;SDS011;23739;51.448;6.674;2023-04-23T09:44:58;4.90;;;2.85;;
37905;SDS011;23739;51.448;6.674;2023-04-23T09:47:25;7.05;;;2.38;;
37905;SDS011;23739;51.448;6.674;2023-04-23T09:49:51;6.35;;;2.80;;
37905;SDS011;23739;51.448;6.674;2023-04-23T09:52:18;10.73;;;2.53;;
37905;SDS011;23739;51.448;6.674;2023-04-23T09:54:45;3.20;;;2.08;;
37905;SDS011;23739;51.448;6.674;2023-04-23T09:57:14;6.18;;;2.88;;
37905;SDS011;23739;51.448;6.674;2023-04-23T09:59:42;4.65;;;2.53;;
37905;SDS011;23739;51.448;6.674;2023-04-23T10:02:09;4.72;;;2.10;;
37905;SDS011;23739;51.448;6.674;2023-04-23T10:04:36;4.88;;;2.15;;
37905;SDS011;23739;51.448;6.674;2023-04-23T10:07:03;3.65;;;1.98;;
37905;SDS011;23739;51.448;6.674;2023-04-23T10:09:32;3.83;;;1.75;;
37905;SDS011;23739;51.448;6.674;2023-04-23T10:12:00;7.47;;;2.00;;
37905;SDS011;23739;51.448;6.674;2023-04-23T10:14:27;5.60;;;2.90;;
37905;SDS011;23739;51.448;6.674;2023-04-23T10:16:56;7.38;;;2.17;;
37905;SDS011;23739;51.448;6.674;2023-04-23T10:19:23;5.35;;;1.92;;
37905;SDS011;23739;51.448;6.674;2023-04-23T10:21:52;3.88;;;1.83;;
37905;SDS011;23739;51.448;6.674;2023-04-23T10:24:22;7.65;;;2.10;;
37905;SDS011;23739;51.448;6.674;2023-04-23T10:26:48;6.38;;;2.25;;
37905;SDS011;23739;51.448;6.674;2023-04-23T10:29:16;3.10;;;1.40;;
37905;SDS011;23739;51.448;6.674;2023-04-23T10:31:42;2.40;;;1.40;;
37905;SDS011;23739;51.448;6.674;2023-04-23T10:34:10;4.38;;;2.10;;
37905;SDS011;23739;51.448;6.674;2023-04-23T10:36:37;7.13;;;1.85;;
37905;SDS011;23739;51.448;6.674;2023-04-23T10:39:03;8.50;;;2.88;;
37905;SDS011;23739;51.448;6.674;2023-04-23T10:41:38;4.85;;;1.65;;
37905;SDS011;23739;51.448;6.674;2023-04-23T10:44:08;11.00;;;2.28;;
37905;SDS011;23739;51.448;6.674;2023-04-23T10:46:36;3.92;;;1.38;;
37905;SDS011;23739;51.448;6.674;2023-04-23T10:49:11;5.53;;;1.88;;
37905;SDS011;23739;51.448;6.674;2023-04-23T10:51:41;7.38;;;1.95;;
37905;SDS011;23739;51.448;6.674;2023-04-23T10:54:13;5.15;;;1.50;;
37905;SDS011;23739;51.448;6.674;2023-04-23T10:56:40;4.22;;;1.58;;
37905;SDS011;23739;51.448;6.674;2023-04-23T10:59:06;3.58;;;1.15;;
37905;SDS011;23739;51.448;6.674;2023-04-23T11:01:33;6.18;;;2.05;;
37905;SDS011;23739;51.448;6.674;2023-04-23T11:04:08;3.97;;;1.80;;
37905;SDS011;23739;51.448;6.674;2023-04-23T11:11:58;6.57;;;1.60;;
37905;SDS011;23739;51.448;6.674;2023-04-23T11:17:09;6.82;;;1.33;;
37905;SDS011;23739;51.448;6.674;2023-04-23T11:19:36;3.60;;;1.00;;
37905;SDS011;23739;51.448;6.674;2023-04-23T11:22:03;3.65;;;1.23;;
37905;SDS011;23739;51.448;6.674;2023-04-23T11:24:36;7.43;;;2.53;;
37905;SDS011;23739;51.448;6.674;2023-04-23T11:27:10;4.82;;;2.08;;
37905;SDS011;23739;51.448;6.674;2023-04-23T11:29:37;1.63;;;1.20;;
37905;SDS011;23739;51.448;6.674;2023-04-23T11:32:04;2.90;;;0.95;;
37905;SDS011;23739;51.448;6.674;2023-04-23T11:34:34;2.83;;;1.38;;
37905;SDS011;23739;51.448;6.674;2023-04-23T11:37:01;3.20;;;0.73;;
37905;SDS011;23739;51.448;6.674;2023-04-23T11:39:29;5.05;;;1.30;;
37905;SDS011;23739;51.448;6.674;2023-04-23T11:41:55;3.05;;;0.90;;
37905;SDS011;23739;51.448;6.674;2023-04-23T11:44:23;1.85;;;0.95;;
37905;SDS011;23739;51.448;6.674;2023-04-23T11:46:49;1.15;;;0.80;;
37905;SDS011;23739;51.448;6.674;2023-04-23T11:49:16;3.88;;;1.02;;
37905;SDS011;23739;51.448;6.674;2023-04-23T11:51:42;4.65;;;1.38;;
37905;SDS011;23739;51.448;6.674;2023-04-23T11:54:09;3.58;;;1.48;;
37905;SDS011;23739;51.448;6.674;2023-04-23T11:56:36;2.72;;;1.08;;
37905;SDS011;23739;51.448;6.674;2023-04-23T11:59:02;2.80;;;1.83;;
37905;SDS011;23739;51.448;6.674;2023-04-23T12:02:11;2.15;;;0.80;;
37905;SDS011;23739;51.448;6.674;2023-04-23T12:04:19;3.50;;;1.10;;
37905;SDS011;23739;51.448;6.674;2023-04-23T12:06:47;3.47;;;0.95;;
37905;SDS011;23739;51.448;6.674;2023-04-23T12:09:14;6.88;;;1.73;;
37905;SDS011;23739;51.448;6.674;2023-04-23T12:11:41;4.50;;;1.13;;
37905;SDS011;23739;51.448;6.674;2023-04-23T12:14:07;2.67;;;0.82;;
37905;SDS011;23739;51.448;6.674;2023-04-23T12:19:00;2.22;;;0.80;;
37905;SDS011;23739;51.448;6.674;2023-04-23T12:21:26;2.97;;;0.80;;
37905;SDS011;23739;51.448;6.674;2023-04-23T12:23:55;1.38;;;0.57;;
37905;SDS011;23739;51.448;6.674;2023-04-23T12:26:25;3.50;;;0.70;;
37905;SDS011;23739;51.448;6.674;2023-04-23T12:31:20;3.28;;;0.75;;
37905;SDS011;23739;51.448;6.674;2023-04-23T12:33:46;3.63;;;0.50;;
37905;SDS011;23739;51.448;6.674;2023-04-23T12:36:14;2.47;;;0.80;;
37905;SDS011;23739;51.448;6.674;2023-04-23T12:38:43;3.63;;;1.35;;
37905;SDS011;23739;51.448;6.674;2023-04-23T12:41:09;5.55;;;1.23;;
37905;SDS011;23739;51.448;6.674;2023-04-23T12:43:35;1.90;;;0.90;;
37905;SDS011;23739;51.448;6.674;2023-04-23T12:46:01;1.73;;;0.73;;
37905;SDS011;23739;51.448;6.674;2023-04-23T12:48:28;2.08;;;1.25;;
37905;SDS011;23739;51.448;6.674;2023-04-23T12:50:54;3.15;;;0.73;;
37905;SDS011;23739;51.448;6.674;2023-04-23T12:53:20;1.00;;;0.73;;
37905;SDS011;23739;51.448;6.674;2023-04-23T12:55:46;6.57;;;2.08;;
37905;SDS011;23739;51.448;6.674;2023-04-23T12:58:14;2.97;;;1.00;;
37905;SDS011;23739;51.448;6.674;2023-04-23T13:00:40;2.70;;;0.82;;
37905;SDS011;23739;51.448;6.674;2023-04-23T13:03:06;7.07;;;1.00;;
37905;SDS011;23739;51.448;6.674;2023-04-23T13:05:32;3.08;;;1.30;;
37905;SDS011;23739;51.448;6.674;2023-04-23T13:07:58;3.70;;;0.77;;
37905;SDS011;23739;51.448;6.674;2023-04-23T13:10:25;2.50;;;0.75;;
37905;SDS011;23739;51.448;6.674;2023-04-23T13:12:51;4.22;;;1.27;;
37905;SDS011;23739;51.448;6.674;2023-04-23T13:15:17;2.30;;;0.95;;
37905;SDS011;23739;51.448;6.674;2023-04-23T13:17:44;1.60;;;0.60;;
37905;SDS011;23739;51.448;6.674;2023-04-23T13:20:10;4.18;;;0.80;;
37905;SDS011;23739;51.448;6.674;2023-04-23T13:22:36;2.53;;;0.82;;
37905;SDS011;23739;51.448;6.674;2023-04-23T13:25:02;2.17;;;0.93;;
37905;SDS011;23739;51.448;6.674;2023-04-23T13:27:28;4.80;;;1.00;;
37905;SDS011;23739;51.448;6.674;2023-04-23T13:29:55;3.72;;;1.38;;
37905;SDS011;23739;51.448;6.674;2023-04-23T13:32:21;1.08;;;0.50;;
37905;SDS011;23739;51.448;6.674;2023-04-23T13:34:49;4.43;;;0.90;;
37905;SDS011;23739;51.448;6.674;2023-04-23T13:37:15;2.67;;;0.80;;
37905;SDS011;23739;51.448;6.674;2023-04-23T13:39:41;3.47;;;0.82;;
37905;SDS011;23739;51.448;6.674;2023-04-23T13:42:08;1.48;;;0.85;;
37905;SDS011;23739;51.448;6.674;2023-04-23T13:44:34;4.25;;;0.90;;
37905;SDS011;23739;51.448;6.674;2023-04-23T13:47:00;3.33;;;0.80;;
37905;SDS011;23739;51.448;6.674;2023-04-23T13:49:26;3.13;;;0.80;;
37905;SDS011;23739;51.448;6.674;2023-04-23T13:51:53;2.70;;;1.23;;
37905;SDS011;23739;51.448;6.674;2023-04-23T13:54:23;2.60;;;0.98;;
37905;SDS011;23739;51.448;6.674;2023-04-23T13:56:54;2.15;;;0.68;;
37905;SDS011;23739;51.448;6.674;2023-04-23T13:59:20;1.13;;;0.70;;
37905;SDS011;23739;51.448;6.674;2023-04-23T14:01:46;3.15;;;1.27;;
37905;SDS011;23739;51.448;6.674;2023-04-23T14:04:13;2.63;;;0.82;;
37905;SDS011;23739;51.448;6.674;2023-04-23T14:06:40;2.15;;;0.85;;
37905;SDS011;23739;51.448;6.674;2023-04-23T14:09:07;3.13;;;1.00;;
37905;SDS011;23739;51.448;6.674;2023-04-23T14:11:34;3.17;;;0.85;;
37905;SDS011;23739;51.448;6.674;2023-04-23T14:14:00;3.83;;;0.90;;
37905;SDS011;23739;51.448;6.674;2023-04-23T14:16:26;2.60;;;1.00;;
37905;SDS011;23739;51.448;6.674;2023-04-23T14:18:52;1.77;;;1.00;;
37905;SDS011;23739;51.448;6.674;2023-04-23T14:21:20;2.67;;;0.90;;
37905;SDS011;23739;51.448;6.674;2023-04-23T14:26:35;3.30;;;1.00;;
37905;SDS011;23739;51.448;6.674;2023-04-23T14:29:03;3.03;;;0.90;;
37905;SDS011;23739;51.448;6.674;2023-04-23T14:34:02;3.65;;;0.93;;
37905;SDS011;23739;51.448;6.674;2023-04-23T14:36:28;4.60;;;1.00;;
37905;SDS011;23739;51.448;6.674;2023-04-23T14:38:54;2.67;;;1.00;;
37905;SDS011;23739;51.448;6.674;2023-04-23T14:41:23;3.10;;;0.75;;
37905;SDS011;23739;51.448;6.674;2023-04-23T14:43:49;2.42;;;0.82;;
37905;SDS011;23739;51.448;6.674;2023-04-23T14:46:15;3.80;;;1.33;;
37905;SDS011;23739;51.448;6.674;2023-04-23T14:48:41;5.05;;;1.30;;
37905;SDS011;23739;51.448;6.674;2023-04-23T14:51:07;2.65;;;0.93;;